createdAt,value
2023-04-22T00:01:53.561Z,51.40
2023-04-22T00:04:21.477Z,51.50
2023-04-22T00:06:48.629Z,51.60
2023-04-22T00:09:15.571Z,51.60
2023-04-22T00:11:42.454Z,51.70
2023-04-22T00:14:09.395Z,51.80
2023-04-22T00:16:36.444Z,51.70
2023-04-22T00:19:04.984Z,51.70
2023-04-22T00:21:32.576Z,51.60
2023-04-22T00:23:59.456Z,51.70
2023-04-22T00:26:26.464Z,51.80
2023-04-22T00:28:53.441Z,51.80
2023-04-22T00:31:20.505Z,52.10
2023-04-22T00:33:47.364Z,52.30
2023-04-22T00:36:14.309Z,52.30
2023-04-22T00:38:46.655Z,52.30
2023-04-22T00:41:13.710Z,52.30
2023-04-22T00:43:40.652Z,52.30
2023-04-22T00:46:07.773Z,52.30
2023-04-22T00:48:37.096Z,52.40
2023-04-22T00:51:04.389Z,52.40
2023-04-22T00:53:31.270Z,52.40
2023-04-22T00:55:59.107Z,52.40
2023-04-22T00:58:28.969Z,52.40
2023-04-22T01:00:56.200Z,52.40
2023-04-22T01:03:24.220Z,52.30
2023-04-22T01:05:51.637Z,52.40
2023-04-22T01:08:18.550Z,52.50
2023-04-22T01:10:45.853Z,52.60
2023-04-22T01:13:12.924Z,52.60
2023-04-22T01:15:40.340Z,52.70
2023-04-22T01:18:07.679Z,52.80
2023-04-22T01:20:34.682Z,53.00
2023-04-22T01:23:04.396Z,53.20
2023-04-22T01:25:31.333Z,53.20
2023-04-22T01:27:58.811Z,53.40
2023-04-22T01:30:26.102Z,53.60
2023-04-22T01:32:53.307Z,53.60
2023-04-22T01:35:20.340Z,53.70
2023-04-22T01:37:47.236Z,53.80
2023-04-22T01:40:16.581Z,53.80
2023-04-22T01:42:43.465Z,53.90
2023-04-22T01:45:11.235Z,54.10
2023-04-22T01:47:38.214Z,54.10
2023-04-22T01:50:05.656Z,54.20
2023-04-22T01:52:32.738Z,54.20
2023-04-22T01:55:01.403Z,54.30
2023-04-22T01:57:28.297Z,54.30
2023-04-22T01:59:56.597Z,54.30
2023-04-22T02:02:23.702Z,54.30
2023-04-22T02:04:50.756Z,54.30
2023-04-22T02:07:17.646Z,54.30
2023-04-22T02:09:44.834Z,54.40
2023-04-22T02:12:11.748Z,54.40
2023-04-22T02:14:38.650Z,54.50
2023-04-22T02:17:05.557Z,54.60
2023-04-22T02:19:32.419Z,54.60
2023-04-22T02:21:59.335Z,54.70
2023-04-22T02:24:26.847Z,54.70
2023-04-22T02:26:53.767Z,54.80
2023-04-22T02:29:20.686Z,54.80
2023-04-22T02:31:47.738Z,54.80
2023-04-22T02:34:14.717Z,54.90
2023-04-22T02:36:41.586Z,54.80
2023-04-22T02:39:08.462Z,54.90
2023-04-22T02:41:35.551Z,54.90
2023-04-22T02:44:02.508Z,54.90
2023-04-22T02:46:29.472Z,55.00
2023-04-22T02:48:56.441Z,55.10
2023-04-22T02:51:23.820Z,55.10
2023-04-22T02:53:50.706Z,55.20
2023-04-22T02:56:17.596Z,55.10
2023-04-22T02:58:44.476Z,55.10
2023-04-22T03:01:11.910Z,55.20
2023-04-22T03:03:39.063Z,55.20
2023-04-22T03:06:06.389Z,55.20
2023-04-22T03:08:33.483Z,55.20
2023-04-22T03:11:00.391Z,55.20
2023-04-22T03:13:27.295Z,55.20
2023-04-22T03:15:54.173Z,55.20
2023-04-22T03:18:21.104Z,55.30
2023-04-22T03:20:49.439Z,55.30
2023-04-22T03:23:16.313Z,55.50
2023-04-22T03:25:43.138Z,55.50
2023-04-22T03:28:09.987Z,55.60
2023-04-22T03:30:36.876Z,55.60
2023-04-22T03:33:03.847Z,55.60
2023-04-22T03:35:31.018Z,55.60
2023-04-22T03:37:57.892Z,55.60
2023-04-22T03:40:24.728Z,55.70
2023-04-22T03:42:51.592Z,55.90
2023-04-22T03:45:18.533Z,55.90
2023-04-22T03:47:45.802Z,55.90
2023-04-22T03:50:12.712Z,55.80
2023-04-22T03:52:39.577Z,55.70
2023-04-22T03:55:06.745Z,55.60
2023-04-22T03:57:33.606Z,55.60
2023-04-22T04:00:00.510Z,55.60
2023-04-22T04:02:27.615Z,55.70
2023-04-22T04:04:54.909Z,55.90
2023-04-22T04:07:21.934Z,56.00
2023-04-22T04:09:48.767Z,56.00
2023-04-22T04:12:15.602Z,56.00
2023-04-22T04:14:42.566Z,56.00
2023-04-22T04:17:09.804Z,56.00
2023-04-22T04:19:38.355Z,56.00
2023-04-22T04:22:05.446Z,56.00
2023-04-22T04:24:32.350Z,56.00
2023-04-22T04:26:59.310Z,56.10
2023-04-22T04:29:27.104Z,56.20
2023-04-22T04:31:53.991Z,56.40
2023-04-22T04:34:20.946Z,56.50
2023-04-22T04:36:47.911Z,56.60
2023-04-22T04:39:17.908Z,56.70
2023-04-22T04:41:45.271Z,56.70
2023-04-22T04:44:12.314Z,56.70
2023-04-22T04:46:39.574Z,56.70
2023-04-22T04:49:09.511Z,56.80
2023-04-22T04:51:36.375Z,56.80
2023-04-22T04:54:03.252Z,56.80
2023-04-22T04:56:31.017Z,56.70
2023-04-22T04:58:58.201Z,56.60
2023-04-22T05:01:25.343Z,56.50
2023-04-22T05:03:52.471Z,56.40
2023-04-22T05:06:19.494Z,56.30
2023-04-22T05:08:46.394Z,56.40
2023-04-22T05:11:13.490Z,56.50
2023-04-22T05:13:40.469Z,56.70
2023-04-22T05:16:07.540Z,56.90
2023-04-22T05:18:34.542Z,57.10
2023-04-22T05:21:04.337Z,57.20
2023-04-22T05:23:31.317Z,57.30
2023-04-22T05:25:58.826Z,57.40
2023-04-22T05:28:25.775Z,57.60
2023-04-22T05:30:52.704Z,57.80
2023-04-22T05:33:19.554Z,57.90
2023-04-22T05:35:46.528Z,58.00
2023-04-22T05:38:13.474Z,58.00
2023-04-22T05:40:40.686Z,58.10
2023-04-22T05:43:07.595Z,58.20
2023-04-22T05:45:34.736Z,58.30
2023-04-22T05:48:01.673Z,58.30
2023-04-22T05:50:28.749Z,57.90
2023-04-22T05:52:55.837Z,57.80
2023-04-22T05:55:22.747Z,57.80
2023-04-22T05:57:50.788Z,57.50
2023-04-22T06:00:18.148Z,57.60
2023-04-22T06:02:45.268Z,57.80
2023-04-22T06:05:12.392Z,58.00
2023-04-22T06:07:40.022Z,58.20
2023-04-22T06:10:07.691Z,58.40
2023-04-22T06:12:34.779Z,58.40
2023-04-22T06:15:01.665Z,58.30
2023-04-22T06:17:28.571Z,58.30
2023-04-22T06:19:55.660Z,58.20
2023-04-22T06:22:22.545Z,58.20
2023-04-22T06:24:49.465Z,58.20
2023-04-22T06:27:17.159Z,58.10
2023-04-22T06:29:44.039Z,57.90
2023-04-22T06:32:10.911Z,58.00
2023-04-22T06:34:38.835Z,57.90
2023-04-22T06:37:06.376Z,57.90
2023-04-22T06:39:33.250Z,58.00
2023-04-22T06:42:01.629Z,58.00
2023-04-22T06:44:29.176Z,58.00
2023-04-22T06:46:57.959Z,58.10
2023-04-22T06:49:25.226Z,58.10
2023-04-22T06:51:52.078Z,58.10
2023-04-22T06:54:19.036Z,58.00
2023-04-22T06:56:46.001Z,57.90
2023-04-22T06:59:13.008Z,58.00
2023-04-22T07:01:39.886Z,57.80
2023-04-22T07:04:06.918Z,57.70
2023-04-22T07:06:33.834Z,57.30
2023-04-22T07:09:00.748Z,57.10
2023-04-22T07:11:27.909Z,57.10
2023-04-22T07:13:54.791Z,57.20
2023-04-22T07:16:21.777Z,57.10
2023-04-22T07:18:48.930Z,57.00
2023-04-22T07:21:15.764Z,56.90
2023-04-22T07:23:42.624Z,56.80
2023-04-22T07:26:09.535Z,56.90
2023-04-22T07:28:36.460Z,56.70
2023-04-22T07:31:03.625Z,56.40
2023-04-22T07:33:30.574Z,56.60
2023-04-22T07:35:57.446Z,56.40
2023-04-22T07:38:26.109Z,56.50
2023-04-22T07:40:53.010Z,56.20
2023-04-22T07:43:20.097Z,56.30
2023-04-22T07:45:47.027Z,56.30
2023-04-22T07:48:13.929Z,55.90
2023-04-22T07:50:40.868Z,55.70
2023-04-22T07:53:07.745Z,55.50
2023-04-22T07:55:34.847Z,55.50
2023-04-22T07:58:06.225Z,55.40
2023-04-22T08:00:35.264Z,55.40
2023-04-22T08:03:03.843Z,55.00
2023-04-22T08:05:30.984Z,55.80
2023-04-22T08:07:57.926Z,54.90
2023-04-22T08:10:24.958Z,54.50
2023-04-22T08:12:51.821Z,54.30
2023-04-22T08:15:18.782Z,54.50
2023-04-22T08:17:46.037Z,53.80
2023-04-22T08:20:15.368Z,52.80
2023-04-22T08:22:45.437Z,52.10
2023-04-22T08:25:12.365Z,52.30
2023-04-22T08:27:39.341Z,52.50
2023-04-22T08:30:07.509Z,53.10
2023-04-22T08:32:34.493Z,53.00
2023-04-22T08:35:04.644Z,53.20
2023-04-22T08:37:32.613Z,53.40
2023-04-22T08:39:59.518Z,52.60
2023-04-22T08:42:27.589Z,51.40
2023-04-22T08:44:54.920Z,49.60
2023-04-22T08:47:22.462Z,47.70
2023-04-22T08:49:52.663Z,46.50
2023-04-22T08:52:19.662Z,44.60
2023-04-22T08:54:46.580Z,42.90
2023-04-22T08:57:14.994Z,40.50
2023-04-22T08:59:42.639Z,38.80
2023-04-22T09:02:23.789Z,38.50
2023-04-22T09:04:53.642Z,38.40
2023-04-22T09:07:26.919Z,38.60
2023-04-22T09:09:56.007Z,38.20
2023-04-22T09:12:23.511Z,38.10
2023-04-22T09:14:50.576Z,37.30
2023-04-22T09:17:18.979Z,37.10
2023-04-22T09:19:46.064Z,37.10
2023-04-22T09:22:16.179Z,37.30
2023-04-22T09:24:52.193Z,36.90
2023-04-22T09:27:20.032Z,37.30
2023-04-22T09:29:50.344Z,37.60
2023-04-22T09:32:18.017Z,38.40
2023-04-22T09:34:53.778Z,38.40
2023-04-22T09:37:33.310Z,39.40
2023-04-22T09:40:06.384Z,38.90
2023-04-22T09:42:48.889Z,39.00
2023-04-22T09:45:28.951Z,39.80
2023-04-22T09:47:57.384Z,39.40
2023-04-22T09:50:26.439Z,40.10
2023-04-22T09:52:59.105Z,39.60
2023-04-22T09:55:27.433Z,39.40
2023-04-22T09:57:55.813Z,40.00
2023-04-22T10:00:26.074Z,39.60
2023-04-22T10:02:53.176Z,39.50
2023-04-22T10:05:20.821Z,39.30
2023-04-22T10:07:47.794Z,39.40
2023-04-22T10:10:14.940Z,39.20
2023-04-22T10:12:42.715Z,39.30
2023-04-22T10:15:10.547Z,39.00
2023-04-22T10:17:39.300Z,38.90
2023-04-22T10:20:13.728Z,39.10
2023-04-22T10:22:42.877Z,39.00
2023-04-22T10:25:25.712Z,38.80
2023-04-22T10:28:06.784Z,37.80
2023-04-22T10:30:37.580Z,38.60
2023-04-22T10:33:23.998Z,37.60
2023-04-22T10:36:11.185Z,38.30
2023-04-22T10:38:42.884Z,38.40
2023-04-22T10:41:16.516Z,38.70
2023-04-22T10:43:47.263Z,38.50
2023-04-22T10:46:37.313Z,39.50
2023-04-22T10:49:07.985Z,39.60
2023-04-22T10:51:46.290Z,39.30
2023-04-22T10:54:37.568Z,39.20
2023-04-22T10:57:05.706Z,39.60
2023-04-22T10:59:53.840Z,38.30
2023-04-22T11:02:22.906Z,38.60
2023-04-22T11:04:50.523Z,38.20
2023-04-22T11:07:26.715Z,37.80
2023-04-22T11:09:59.279Z,38.70
2023-04-22T11:12:44.046Z,38.10
2023-04-22T11:15:19.944Z,37.80
2023-04-22T11:17:50.547Z,37.50
2023-04-22T11:20:18.296Z,38.30
2023-04-22T11:22:51.362Z,37.70
2023-04-22T11:25:18.919Z,38.60
2023-04-22T11:27:46.459Z,38.30
2023-04-22T11:30:16.519Z,38.40
2023-04-22T11:32:48.816Z,38.50
2023-04-22T11:35:19.819Z,37.00
2023-04-22T11:37:58.425Z,36.70
2023-04-22T11:40:31.647Z,37.30
2023-04-22T11:43:01.656Z,37.80
2023-04-22T11:45:34.072Z,36.60
2023-04-22T11:48:02.067Z,37.00
2023-04-22T11:50:37.099Z,37.40
2023-04-22T11:53:13.320Z,37.20
2023-04-22T11:55:41.739Z,37.40
2023-04-22T11:58:09.879Z,36.70
2023-04-22T12:00:43.171Z,36.30
2023-04-22T12:03:20.523Z,36.50
2023-04-22T12:05:54.512Z,37.20
2023-04-22T12:08:26.823Z,35.80
2023-04-22T12:10:56.489Z,35.60
2023-04-22T12:13:31.726Z,35.90
2023-04-22T12:16:04.572Z,35.90
2023-04-22T12:18:39.779Z,35.30
2023-04-22T12:21:11.099Z,35.50
2023-04-22T12:23:45.941Z,35.80
2023-04-22T12:26:13.783Z,36.40
2023-04-22T12:28:42.071Z,36.40
2023-04-22T12:31:09.822Z,36.40
2023-04-22T12:33:37.747Z,35.40
2023-04-22T12:36:05.976Z,35.00
2023-04-22T12:38:33.303Z,35.20
2023-04-22T12:41:00.649Z,36.10
2023-04-22T12:43:27.537Z,34.80
2023-04-22T12:45:54.509Z,35.10
2023-04-22T12:48:21.454Z,34.50
2023-04-22T12:50:48.390Z,34.50
2023-04-22T12:53:16.308Z,34.30
2023-04-22T12:55:45.856Z,34.30
2023-04-22T12:58:13.101Z,34.00
2023-04-22T13:00:40.732Z,34.20
2023-04-22T13:03:07.971Z,34.60
2023-04-22T13:05:35.155Z,34.00
2023-04-22T13:08:07.226Z,34.90
2023-04-22T13:10:35.784Z,33.20
2023-04-22T13:15:34.462Z,33.60
2023-04-22T13:18:02.299Z,33.00
2023-04-22T13:20:29.389Z,32.40
2023-04-22T13:22:56.391Z,32.60
2023-04-22T13:25:23.256Z,32.40
2023-04-22T13:27:50.664Z,32.40
2023-04-22T13:30:17.520Z,32.90
2023-04-22T13:32:44.444Z,32.00
2023-04-22T13:35:11.508Z,32.40
2023-04-22T13:37:38.512Z,32.70
2023-04-22T13:40:06.265Z,31.80
2023-04-22T13:42:33.166Z,31.70
2023-04-22T13:45:00.029Z,31.80
2023-04-22T13:47:27.018Z,31.80
2023-04-22T13:49:53.960Z,31.80
2023-04-22T13:52:20.926Z,32.50
2023-04-22T13:54:47.827Z,32.60
2023-04-22T13:57:14.799Z,31.90
2023-04-22T13:59:42.229Z,31.90
2023-04-22T14:02:09.520Z,32.70
2023-04-22T14:04:36.496Z,32.30
2023-04-22T14:07:04.119Z,32.30
2023-04-22T14:09:31.328Z,32.80
2023-04-22T14:11:58.908Z,33.30
2023-04-22T14:14:26.069Z,32.40
2023-04-22T14:16:53.022Z,32.60
2023-04-22T14:19:20.337Z,32.60
2023-04-22T14:21:47.716Z,32.00
2023-04-22T14:24:14.875Z,31.10
2023-04-22T14:26:41.809Z,31.10
2023-04-22T14:29:08.802Z,30.70
2023-04-22T14:31:35.941Z,31.40
2023-04-22T14:34:02.993Z,31.40
2023-04-22T14:36:30.017Z,31.00
2023-04-22T14:38:56.920Z,31.00
2023-04-22T14:41:24.849Z,31.20
2023-04-22T14:43:51.784Z,30.70
2023-04-22T14:46:18.736Z,30.90
2023-04-22T14:48:45.714Z,30.80
2023-04-22T14:51:12.605Z,31.30
2023-04-22T14:53:40.959Z,31.30
2023-04-22T14:56:08.187Z,31.20
2023-04-22T14:58:35.058Z,30.80
2023-04-22T15:01:02.033Z,30.70
2023-04-22T15:03:29.170Z,30.80
2023-04-22T15:05:56.290Z,31.00
2023-04-22T15:08:25.378Z,31.10
2023-04-22T15:10:52.347Z,30.40
2023-04-22T15:13:19.905Z,30.50
2023-04-22T15:15:47.183Z,31.00
2023-04-22T15:18:14.286Z,31.00
2023-04-22T15:20:41.501Z,29.80
2023-04-22T15:23:08.385Z,29.50
2023-04-22T15:25:35.881Z,30.00
2023-04-22T15:28:03.228Z,30.00
2023-04-22T15:30:30.365Z,30.10
2023-04-22T15:32:57.419Z,30.00
2023-04-22T15:35:24.574Z,30.10
2023-04-22T15:37:52.696Z,30.00
2023-04-22T15:40:19.811Z,30.00
2023-04-22T15:42:46.777Z,30.10
2023-04-22T15:45:13.705Z,30.60
2023-04-22T15:47:41.731Z,31.60
2023-04-22T15:50:09.769Z,31.10
2023-04-22T15:52:38.090Z,31.40
2023-04-22T15:55:08.359Z,31.80
2023-04-22T15:57:35.621Z,32.20
2023-04-22T16:00:13.125Z,32.10
2023-04-22T16:02:41.888Z,31.80
2023-04-22T16:05:09.320Z,31.40
2023-04-22T16:07:36.269Z,31.60
2023-04-22T16:10:03.623Z,31.70
2023-04-22T16:12:33.541Z,31.80
2023-04-22T16:15:01.616Z,31.20
2023-04-22T16:17:28.927Z,30.80
2023-04-22T16:19:55.999Z,30.60
2023-04-22T16:22:23.193Z,30.50
2023-04-22T16:24:50.073Z,30.60
2023-04-22T16:27:18.611Z,30.80
2023-04-22T16:29:46.149Z,30.90
2023-04-22T16:32:13.104Z,31.20
2023-04-22T16:34:40.087Z,31.50
2023-04-22T16:37:07.065Z,31.60
2023-04-22T16:39:34.058Z,31.80
2023-04-22T16:42:02.363Z,31.80
2023-04-22T16:44:29.389Z,31.80
2023-04-22T16:46:56.269Z,32.00
2023-04-22T16:49:23.221Z,32.00
2023-04-22T16:51:50.435Z,31.80
2023-04-22T16:54:17.323Z,32.20
2023-04-22T16:56:44.260Z,32.40
2023-04-22T16:59:11.206Z,32.60
2023-04-22T17:01:38.142Z,32.70
2023-04-22T17:04:05.123Z,32.90
2023-04-22T17:06:32.596Z,33.40
2023-04-22T17:09:00.033Z,33.30
2023-04-22T17:11:26.939Z,33.60
2023-04-22T17:13:53.926Z,34.20
2023-04-22T17:16:21.078Z,34.30
2023-04-22T17:18:48.237Z,34.90
2023-04-22T17:21:16.868Z,35.30
2023-04-22T17:23:43.814Z,35.20
2023-04-22T17:26:10.644Z,35.60
2023-04-22T17:28:37.555Z,35.80
2023-04-22T17:31:04.471Z,35.80
2023-04-22T17:33:31.427Z,36.30
2023-04-22T17:35:58.363Z,36.50
2023-04-22T17:38:25.261Z,37.10
2023-04-22T17:40:52.137Z,36.50
2023-04-22T17:43:19.026Z,36.90
2023-04-22T17:45:45.911Z,37.00
2023-04-22T17:48:12.796Z,37.20
2023-04-22T17:50:39.701Z,37.30
2023-04-22T17:53:06.749Z,37.50
2023-04-22T17:55:36.693Z,37.90
2023-04-22T17:58:04.630Z,38.20
2023-04-22T18:00:33.460Z,38.40
2023-04-22T18:03:00.720Z,38.50
2023-04-22T18:05:27.907Z,38.90
2023-04-22T18:08:01.693Z,39.00
2023-04-22T18:10:29.469Z,39.30
2023-04-22T18:12:56.345Z,39.40
2023-04-22T18:15:23.646Z,40.00
2023-04-22T18:17:51.251Z,39.60
2023-04-22T18:20:19.869Z,39.80
2023-04-22T18:22:49.000Z,40.00
2023-04-22T18:25:17.026Z,40.00
2023-04-22T18:27:44.221Z,40.10
2023-04-22T18:30:11.467Z,40.20
2023-04-22T18:32:38.653Z,40.20
2023-04-22T18:35:06.340Z,39.80
2023-04-22T18:37:34.881Z,39.40
2023-04-22T18:40:02.672Z,39.00
2023-04-22T18:42:29.971Z,38.70
2023-04-22T18:44:56.996Z,38.50
2023-04-22T18:47:23.942Z,37.90
2023-04-22T18:49:50.969Z,38.00
2023-04-22T18:52:18.401Z,38.10
2023-04-22T18:54:45.395Z,38.50
2023-04-22T18:57:12.469Z,37.80
2023-04-22T18:59:39.814Z,37.70
2023-04-22T19:02:06.813Z,37.90
2023-04-22T19:04:33.778Z,38.10
2023-04-22T19:07:01.029Z,38.20
2023-04-22T19:09:27.982Z,38.30
2023-04-22T19:11:55.561Z,38.40
2023-04-22T19:14:22.517Z,38.40
2023-04-22T19:16:49.542Z,38.40
2023-04-22T19:19:16.502Z,38.50
2023-04-22T19:21:43.596Z,38.60
2023-04-22T19:24:10.867Z,38.60
2023-04-22T19:26:37.853Z,38.20
2023-04-22T19:29:04.732Z,38.10
2023-04-22T19:31:32.188Z,38.30
2023-04-22T19:33:59.526Z,38.10
2023-04-22T19:36:27.043Z,38.20
2023-04-22T19:38:54.015Z,38.30
2023-04-22T19:41:21.719Z,38.40
2023-04-22T19:43:48.691Z,38.50
2023-04-22T19:46:15.570Z,38.40
2023-04-22T19:48:42.671Z,38.50
2023-04-22T19:51:11.197Z,39.00
2023-04-22T19:53:41.236Z,38.50
2023-04-22T19:56:09.325Z,38.60
2023-04-22T19:58:36.609Z,38.60
2023-04-22T20:01:04.331Z,38.50
2023-04-22T20:03:31.648Z,38.60
2023-04-22T20:05:59.514Z,38.50
2023-04-22T20:08:27.994Z,38.60
2023-04-22T20:10:55.746Z,38.50
2023-04-22T20:13:23.232Z,38.60
2023-04-22T20:15:50.898Z,38.60
2023-04-22T20:18:17.907Z,38.50
2023-04-22T20:20:48.037Z,38.50
2023-04-22T20:23:15.590Z,38.30
2023-04-22T20:25:47.061Z,38.40
2023-04-22T20:28:14.368Z,38.50
2023-04-22T20:30:41.605Z,39.20
2023-04-22T20:33:12.193Z,38.50
2023-04-22T20:35:40.376Z,38.40
2023-04-22T20:38:09.858Z,38.50
2023-04-22T20:40:36.901Z,38.50
2023-04-22T20:43:03.805Z,38.60
2023-04-22T20:45:31.330Z,38.40
2023-04-22T20:47:58.495Z,38.40
2023-04-22T20:50:26.535Z,38.40
2023-04-22T20:52:53.495Z,39.20
2023-04-22T20:55:20.358Z,38.60
2023-04-22T20:57:47.230Z,38.50
2023-04-22T21:00:14.738Z,38.70
2023-04-22T21:02:43.409Z,38.50
2023-04-22T21:05:11.430Z,38.30
2023-04-22T21:07:43.139Z,38.40
2023-04-22T21:10:10.513Z,38.30
2023-04-22T21:12:38.331Z,38.20
2023-04-22T21:15:06.171Z,38.30
2023-04-22T21:17:35.559Z,38.60
2023-04-22T21:20:05.400Z,38.80
2023-04-22T21:22:32.842Z,38.40
2023-04-22T21:25:00.536Z,38.40
2023-04-22T21:27:27.735Z,38.50
2023-04-22T21:29:54.941Z,38.40
2023-04-22T21:32:21.955Z,38.10
2023-04-22T21:34:48.827Z,37.90
2023-04-22T21:37:15.797Z,37.80
2023-04-22T21:39:42.655Z,37.70
2023-04-22T21:42:09.624Z,37.40
2023-04-22T21:44:38.142Z,37.30
2023-04-22T21:47:05.965Z,37.40
2023-04-22T21:49:33.051Z,37.30
2023-04-22T21:51:59.977Z,37.20
2023-04-22T21:54:27.026Z,37.20
2023-04-22T21:56:53.967Z,37.10
2023-04-22T21:59:20.986Z,37.10
2023-04-22T22:01:48.032Z,37.10
2023-04-22T22:04:15.952Z,37.00
2023-04-22T22:06:44.815Z,36.80
2023-04-22T22:09:12.468Z,36.80
2023-04-22T22:11:39.352Z,36.80
2023-04-22T22:14:06.335Z,36.80
2023-04-22T22:16:33.537Z,37.00
2023-04-22T22:19:02.788Z,37.00
2023-04-22T22:21:29.903Z,36.70
2023-04-22T22:23:57.884Z,36.50
2023-04-22T22:26:24.894Z,36.60
2023-04-22T22:28:51.790Z,36.50
2023-04-22T22:31:18.800Z,36.60
2023-04-22T22:33:45.911Z,36.70
2023-04-22T22:36:13.682Z,36.70
2023-04-22T22:38:40.641Z,36.30
2023-04-22T22:41:07.511Z,36.00
2023-04-22T22:43:34.428Z,36.00
2023-04-22T22:46:01.603Z,36.10
2023-04-22T22:48:28.722Z,36.10
2023-04-22T22:50:56.845Z,36.00
2023-04-22T22:53:23.698Z,36.20
2023-04-22T22:55:50.764Z,36.30
2023-04-22T22:58:17.679Z,36.40
2023-04-22T23:00:44.609Z,36.40
2023-04-22T23:03:11.662Z,36.70
2023-04-22T23:05:38.835Z,36.80
2023-04-22T23:08:05.901Z,37.00
2023-04-22T23:10:32.815Z,37.20
2023-04-22T23:12:59.744Z,37.50
2023-04-22T23:15:26.590Z,37.80
2023-04-22T23:17:53.448Z,38.40
2023-04-22T23:20:21.972Z,38.80
2023-04-22T23:22:51.157Z,39.20
2023-04-22T23:25:18.368Z,39.50
2023-04-22T23:27:45.973Z,39.70
2023-04-22T23:30:13.318Z,40.00
2023-04-22T23:32:41.057Z,40.20
2023-04-22T23:35:10.261Z,40.60
2023-04-22T23:37:38.255Z,40.90
2023-04-22T23:40:06.891Z,41.10
2023-04-22T23:42:33.802Z,41.20
2023-04-22T23:45:00.683Z,41.20
2023-04-22T23:47:27.827Z,41.30
2023-04-22T23:49:54.732Z,41.20
2023-04-22T23:52:21.677Z,41.10
2023-04-22T23:54:51.328Z,41.10
2023-04-22T23:57:18.529Z,41.00
2023-04-22T23:59:45.735Z,41.10
